Portada
METAR-TAF:

METAR-TAF

Aeroports :

Aeroport de Sabadell

Sabadell, Espanya

latitud: 41-31N, longitud: 002-06E, altitud: 250 m

Observació

L'informe es va fer fa 17 minuts, a les 17:00 UTC
Vent 6 kt del Est/Sud-Est, variant entre Est/Nord-Est i Sud
Temperatura 27°C
Humitat 48%
Pressió 1019 hPa
Visibilitat 10 km o més
sense núvols per sota de 1500 mi sense presència de cumulonimbus.

METAR: LELL 181700Z 12006KT 070V170 CAVOK 27/15 Q1019

Hora: 19:17 (17:17 UTC)

Pronòstic

L'informe es va fer fa 3 hores i 17 minuts, a les 14:00 UTC
Pronòstic vàlid del 18 a les 15 UTC al 19 a les 15 UTC
Vent 10 kt del Est/Sud-Est
Visibilitat 10 km o més
Escasses núvols a una alçada de 3000 ft
Evolucionant progressivament
l' 18 a les 18 UTC al 18 a les 21 UTC
Vent 4 kt amb direcció variable
Evolucionant progressivament
l' 19 a les 10 UTC al 19 a les 12 UTC
Vent 10 kt del Sud/Sud-Est

TAF: LELL 181400Z 1815/1915 12010KT 9999 FEW030 TX31/1912Z TN18/1905Z BECMG 1818/1821 VRB04KT BECMG 1910/1912 16010KT

Observacions i pronòstics meteorològics de més de 4000 aeroports (METAR i TAF).

Les estacions disponibles són els punts grocs i vermells al mapa.

Posi el ratolí al punt desitjat per veure el nom de l'estació.

Feu clic per veure les observacions i els pronòstics meteorològics.

Per canviar el mapa: feu clic els botons verds amb una creu de color negre per apropar; al botó verd amb un guió per allunyar la imatge; o en les fletxes verdes per a mapes adjacents.


METAR-TAF: